sim
Sign-in with your pilot id or email,
or register
Callsign
Passwort

Schedule Details

Flight Number: RYR8582 (3)
Departure: London Stansted Airport (EGSS) at 16:35
Arrival: Thessaloniki International Airport (LGTS) at 19:45
Route: Ryanair Passenger Schedule. Enter filed route here before submitting Pirep.

Weather Information
Getting current METAR information for EGSS 211750Z AUTO 22009KT 9999 NCD 20/10 Q1025
Getting current METAR information for LGTS 211750Z 16005KT CAVOK 29/13 Q1016 NOSIG

Schedule Frequency

Route Map